sensor_id;sensor_type;location;lat;lon;timestamp;temperature;humidity
9847;DHT22;68671;50.084;8.794;2023-04-09T00:02:02;11.20;99.90
9847;DHT22;68671;50.084;8.794;2023-04-09T00:04:29;11.20;99.90
9847;DHT22;68671;50.084;8.794;2023-04-09T00:06:56;11.10;99.90
9847;DHT22;68671;50.084;8.794;2023-04-09T00:09:24;11.00;99.90
9847;DHT22;68671;50.084;8.794;2023-04-09T00:11:50;10.90;99.90
9847;DHT22;68671;50.084;8.794;2023-04-09T00:14:17;10.90;99.90
9847;DHT22;68671;50.084;8.794;2023-04-09T00:16:44;10.80;99.90
9847;DHT22;68671;50.084;8.794;2023-04-09T00:19:13;10.70;99.90
9847;DHT22;68671;50.084;8.794;2023-04-09T00:21:40;10.60;99.90
9847;DHT22;68671;50.084;8.794;2023-04-09T00:24:07;10.60;99.90
9847;DHT22;68671;50.084;8.794;2023-04-09T00:26:34;10.50;99.90
9847;DHT22;68671;50.084;8.794;2023-04-09T00:29:01;10.50;99.90
9847;DHT22;68671;50.084;8.794;2023-04-09T00:31:28;10.40;99.90
9847;DHT22;68671;50.084;8.794;2023-04-09T00:33:55;10.30;99.90
9847;DHT22;68671;50.084;8.794;2023-04-09T00:36:23;10.30;99.90
9847;DHT22;68671;50.084;8.794;2023-04-09T00:38:50;10.30;99.90
9847;DHT22;68671;50.084;8.794;2023-04-09T00:41:19;10.20;99.90
9847;DHT22;68671;50.084;8.794;2023-04-09T00:43:46;10.10;99.90
9847;DHT22;68671;50.084;8.794;2023-04-09T00:46:13;10.10;99.90
9847;DHT22;68671;50.084;8.794;2023-04-09T00:48:40;10.00;99.90
9847;DHT22;68671;50.084;8.794;2023-04-09T00:51:07;10.10;99.90
9847;DHT22;68671;50.084;8.794;2023-04-09T00:53:36;10.00;99.90
9847;DHT22;68671;50.084;8.794;2023-04-09T00:56:04;10.00;99.90
9847;DHT22;68671;50.084;8.794;2023-04-09T00:58:31;10.00;99.90
9847;DHT22;68671;50.084;8.794;2023-04-09T01:00:58;10.10;99.90
9847;DHT22;68671;50.084;8.794;2023-04-09T01:03:25;10.10;99.90
9847;DHT22;68671;50.084;8.794;2023-04-09T01:05:59;10.10;99.90
9847;DHT22;68671;50.084;8.794;2023-04-09T01:08:32;10.10;99.90
9847;DHT22;68671;50.084;8.794;2023-04-09T01:11:10;10.00;99.90
9847;DHT22;68671;50.084;8.794;2023-04-09T01:13:47;10.00;99.90
9847;DHT22;68671;50.084;8.794;2023-04-09T01:16:15;10.00;99.90
9847;DHT22;68671;50.084;8.794;2023-04-09T01:18:49;9.90;99.90
9847;DHT22;68671;50.084;8.794;2023-04-09T01:21:19;9.80;99.90
9847;DHT22;68671;50.084;8.794;2023-04-09T01:23:57;9.80;99.90
9847;DHT22;68671;50.084;8.794;2023-04-09T01:26:37;9.70;99.90
9847;DHT22;68671;50.084;8.794;2023-04-09T01:29:09;9.70;99.90
9847;DHT22;68671;50.084;8.794;2023-04-09T01:31:38;9.60;99.90
9847;DHT22;68671;50.084;8.794;2023-04-09T01:34:08;9.70;99.90
9847;DHT22;68671;50.084;8.794;2023-04-09T01:36:37;9.50;99.90
9847;DHT22;68671;50.084;8.794;2023-04-09T01:39:05;9.50;99.90
9847;DHT22;68671;50.084;8.794;2023-04-09T01:41:34;9.50;99.90
9847;DHT22;68671;50.084;8.794;2023-04-09T01:44:02;9.50;99.90
9847;DHT22;68671;50.084;8.794;2023-04-09T01:46:32;9.60;99.90
9847;DHT22;68671;50.084;8.794;2023-04-09T01:49:01;9.60;99.90
9847;DHT22;68671;50.084;8.794;2023-04-09T01:51:28;9.60;99.90
9847;DHT22;68671;50.084;8.794;2023-04-09T01:53:56;9.60;99.90
9847;DHT22;68671;50.084;8.794;2023-04-09T01:56:24;9.70;99.90
9847;DHT22;68671;50.084;8.794;2023-04-09T01:58:51;9.60;99.90
9847;DHT22;68671;50.084;8.794;2023-04-09T02:01:23;9.70;99.90
9847;DHT22;68671;50.084;8.794;2023-04-09T02:03:55;9.70;99.90
9847;DHT22;68671;50.084;8.794;2023-04-09T02:06:27;9.60;99.90
9847;DHT22;68671;50.084;8.794;2023-04-09T02:08:58;9.50;99.90
9847;DHT22;68671;50.084;8.794;2023-04-09T02:11:28;9.60;99.90
9847;DHT22;68671;50.084;8.794;2023-04-09T02:13:57;9.50;99.90
9847;DHT22;68671;50.084;8.794;2023-04-09T02:16:25;9.50;99.90
9847;DHT22;68671;50.084;8.794;2023-04-09T02:18:54;9.50;99.90
9847;DHT22;68671;50.084;8.794;2023-04-09T02:21:22;9.40;99.90
9847;DHT22;68671;50.084;8.794;2023-04-09T02:23:51;9.30;99.90
9847;DHT22;68671;50.084;8.794;2023-04-09T02:26:18;9.30;99.90
9847;DHT22;68671;50.084;8.794;2023-04-09T02:28:45;9.30;99.90
9847;DHT22;68671;50.084;8.794;2023-04-09T02:31:12;9.30;99.90
9847;DHT22;68671;50.084;8.794;2023-04-09T02:33:39;9.30;99.90
9847;DHT22;68671;50.084;8.794;2023-04-09T02:36:10;9.30;99.90
9847;DHT22;68671;50.084;8.794;2023-04-09T02:38:40;9.40;99.90
9847;DHT22;68671;50.084;8.794;2023-04-09T02:41:07;9.40;99.90
9847;DHT22;68671;50.084;8.794;2023-04-09T02:43:36;9.40;99.90
9847;DHT22;68671;50.084;8.794;2023-04-09T02:46:03;9.50;99.90
9847;DHT22;68671;50.084;8.794;2023-04-09T02:48:30;9.50;99.90
9847;DHT22;68671;50.084;8.794;2023-04-09T02:50:58;9.50;99.90
9847;DHT22;68671;50.084;8.794;2023-04-09T02:53:26;9.60;99.90
9847;DHT22;68671;50.084;8.794;2023-04-09T02:55:53;9.60;99.90
9847;DHT22;68671;50.084;8.794;2023-04-09T02:58:20;9.50;99.90
9847;DHT22;68671;50.084;8.794;2023-04-09T03:00:47;9.60;99.90
9847;DHT22;68671;50.084;8.794;2023-04-09T03:03:14;9.70;99.90
9847;DHT22;68671;50.084;8.794;2023-04-09T03:05:41;9.50;99.90
9847;DHT22;68671;50.084;8.794;2023-04-09T03:08:08;9.50;99.90
9847;DHT22;68671;50.084;8.794;2023-04-09T03:10:37;9.40;99.90
9847;DHT22;68671;50.084;8.794;2023-04-09T03:13:04;9.40;99.90
9847;DHT22;68671;50.084;8.794;2023-04-09T03:15:31;9.20;99.90
9847;DHT22;68671;50.084;8.794;2023-04-09T03:17:58;9.20;99.90
9847;DHT22;68671;50.084;8.794;2023-04-09T03:20:25;9.10;99.90
9847;DHT22;68671;50.084;8.794;2023-04-09T03:22:52;8.90;99.90
9847;DHT22;68671;50.084;8.794;2023-04-09T03:25:19;8.90;99.90
9847;DHT22;68671;50.084;8.794;2023-04-09T03:27:47;8.80;99.90
9847;DHT22;68671;50.084;8.794;2023-04-09T03:30:14;8.70;99.90
9847;DHT22;68671;50.084;8.794;2023-04-09T03:32:41;8.60;99.90
9847;DHT22;68671;50.084;8.794;2023-04-09T03:35:08;8.50;99.90
9847;DHT22;68671;50.084;8.794;2023-04-09T03:37:35;8.40;99.90
9847;DHT22;68671;50.084;8.794;2023-04-09T03:40:03;8.40;99.90
9847;DHT22;68671;50.084;8.794;2023-04-09T03:42:30;8.40;99.90
9847;DHT22;68671;50.084;8.794;2023-04-09T03:45:00;8.40;99.90
9847;DHT22;68671;50.084;8.794;2023-04-09T03:47:28;8.40;99.90
9847;DHT22;68671;50.084;8.794;2023-04-09T03:49:55;8.30;99.90
9847;DHT22;68671;50.084;8.794;2023-04-09T03:52:22;8.30;99.90
9847;DHT22;68671;50.084;8.794;2023-04-09T03:54:48;8.30;99.90
9847;DHT22;68671;50.084;8.794;2023-04-09T03:57:15;8.20;99.90
9847;DHT22;68671;50.084;8.794;2023-04-09T03:59:42;8.20;99.90
9847;DHT22;68671;50.084;8.794;2023-04-09T04:02:11;8.20;99.90
9847;DHT22;68671;50.084;8.794;2023-04-09T04:04:38;8.20;99.90
9847;DHT22;68671;50.084;8.794;2023-04-09T04:07:05;8.10;99.90
9847;DHT22;68671;50.084;8.794;2023-04-09T04:09:32;8.10;99.90
9847;DHT22;68671;50.084;8.794;2023-04-09T04:12:00;8.00;99.90
9847;DHT22;68671;50.084;8.794;2023-04-09T04:14:27;7.90;99.90
9847;DHT22;68671;50.084;8.794;2023-04-09T04:16:54;7.80;99.90
9847;DHT22;68671;50.084;8.794;2023-04-09T04:19:23;7.90;99.90
9847;DHT22;68671;50.084;8.794;2023-04-09T04:21:50;7.80;99.90
9847;DHT22;68671;50.084;8.794;2023-04-09T04:24:16;7.70;99.90
9847;DHT22;68671;50.084;8.794;2023-04-09T04:26:43;7.70;99.90
9847;DHT22;68671;50.084;8.794;2023-04-09T04:29:11;7.60;99.90
9847;DHT22;68671;50.084;8.794;2023-04-09T04:31:40;7.70;99.90
9847;DHT22;68671;50.084;8.794;2023-04-09T04:34:08;7.50;99.90
9847;DHT22;68671;50.084;8.794;2023-04-09T04:36:37;7.50;99.90
9847;DHT22;68671;50.084;8.794;2023-04-09T04:39:04;7.50;99.90
9847;DHT22;68671;50.084;8.794;2023-04-09T04:41:31;7.50;99.90
9847;DHT22;68671;50.084;8.794;2023-04-09T04:43:58;7.40;99.90
9847;DHT22;68671;50.084;8.794;2023-04-09T04:46:25;7.40;99.90
9847;DHT22;68671;50.084;8.794;2023-04-09T04:48:52;7.30;99.90
9847;DHT22;68671;50.084;8.794;2023-04-09T04:51:20;7.30;99.90
9847;DHT22;68671;50.084;8.794;2023-04-09T04:53:48;7.20;99.90
9847;DHT22;68671;50.084;8.794;2023-04-09T04:56:15;7.20;99.90
9847;DHT22;68671;50.084;8.794;2023-04-09T04:58:42;7.20;99.90
9847;DHT22;68671;50.084;8.794;2023-04-09T05:01:09;7.10;99.90
9847;DHT22;68671;50.084;8.794;2023-04-09T05:03:36;7.00;99.90
9847;DHT22;68671;50.084;8.794;2023-04-09T05:06:04;7.10;99.90
9847;DHT22;68671;50.084;8.794;2023-04-09T05:08:34;7.10;99.90
9847;DHT22;68671;50.084;8.794;2023-04-09T05:11:03;7.10;99.90
9847;DHT22;68671;50.084;8.794;2023-04-09T05:13:30;7.10;99.90
9847;DHT22;68671;50.084;8.794;2023-04-09T05:15:58;7.20;99.90
9847;DHT22;68671;50.084;8.794;2023-04-09T05:18:25;7.10;99.90
9847;DHT22;68671;50.084;8.794;2023-04-09T05:20:52;7.20;99.90
9847;DHT22;68671;50.084;8.794;2023-04-09T05:23:19;7.20;99.90
9847;DHT22;68671;50.084;8.794;2023-04-09T05:25:53;7.30;99.90
9847;DHT22;68671;50.084;8.794;2023-04-09T05:28:22;7.20;99.90
9847;DHT22;68671;50.084;8.794;2023-04-09T05:30:49;7.20;99.90
9847;DHT22;68671;50.084;8.794;2023-04-09T05:33:16;7.30;99.90
9847;DHT22;68671;50.084;8.794;2023-04-09T05:35:43;7.30;99.90
9847;DHT22;68671;50.084;8.794;2023-04-09T05:38:10;7.30;99.90
9847;DHT22;68671;50.084;8.794;2023-04-09T05:40:38;7.40;99.90
9847;DHT22;68671;50.084;8.794;2023-04-09T05:43:06;7.50;99.90
9847;DHT22;68671;50.084;8.794;2023-04-09T05:45:35;7.60;99.90
9847;DHT22;68671;50.084;8.794;2023-04-09T05:48:02;7.80;99.90
9847;DHT22;68671;50.084;8.794;2023-04-09T05:50:29;8.00;99.90
9847;DHT22;68671;50.084;8.794;2023-04-09T05:52:56;8.10;99.90
9847;DHT22;68671;50.084;8.794;2023-04-09T05:55:23;8.30;99.90
9847;DHT22;68671;50.084;8.794;2023-04-09T05:57:51;8.50;99.90
9847;DHT22;68671;50.084;8.794;2023-04-09T06:00:18;8.60;99.90
9847;DHT22;68671;50.084;8.794;2023-04-09T06:02:47;8.90;99.90
9847;DHT22;68671;50.084;8.794;2023-04-09T06:05:14;9.20;99.90
9847;DHT22;68671;50.084;8.794;2023-04-09T06:07:41;9.40;99.90
9847;DHT22;68671;50.084;8.794;2023-04-09T06:10:08;9.70;99.90
9847;DHT22;68671;50.084;8.794;2023-04-09T06:12:35;10.00;99.90
9847;DHT22;68671;50.084;8.794;2023-04-09T06:15:03;10.30;99.90
9847;DHT22;68671;50.084;8.794;2023-04-09T06:17:30;10.60;99.90
9847;DHT22;68671;50.084;8.794;2023-04-09T06:19:58;10.80;99.90
9847;DHT22;68671;50.084;8.794;2023-04-09T06:22:25;11.10;99.90
9847;DHT22;68671;50.084;8.794;2023-04-09T06:24:52;11.40;99.90
9847;DHT22;68671;50.084;8.794;2023-04-09T06:27:19;11.80;99.90
9847;DHT22;68671;50.084;8.794;2023-04-09T06:29:46;12.20;99.90
9847;DHT22;68671;50.084;8.794;2023-04-09T06:32:13;12.50;99.90
9847;DHT22;68671;50.084;8.794;2023-04-09T06:34:40;12.80;99.90
9847;DHT22;68671;50.084;8.794;2023-04-09T06:37:08;13.20;99.90
9847;DHT22;68671;50.084;8.794;2023-04-09T06:39:35;13.50;99.90
9847;DHT22;68671;50.084;8.794;2023-04-09T06:42:02;13.90;99.90
9847;DHT22;68671;50.084;8.794;2023-04-09T06:44:29;14.20;99.90
9847;DHT22;68671;50.084;8.794;2023-04-09T06:46:56;14.60;99.90
9847;DHT22;68671;50.084;8.794;2023-04-09T06:49:23;14.90;99.90
9847;DHT22;68671;50.084;8.794;2023-04-09T06:51:50;15.20;99.90
9847;DHT22;68671;50.084;8.794;2023-04-09T06:54:19;15.50;99.90
9847;DHT22;68671;50.084;8.794;2023-04-09T06:56:46;15.70;99.90
9847;DHT22;68671;50.084;8.794;2023-04-09T06:59:13;16.00;99.90
9847;DHT22;68671;50.084;8.794;2023-04-09T07:01:41;16.30;99.90
9847;DHT22;68671;50.084;8.794;2023-04-09T07:04:08;16.60;99.90
9847;DHT22;68671;50.084;8.794;2023-04-09T07:06:35;16.70;99.90
9847;DHT22;68671;50.084;8.794;2023-04-09T07:09:02;17.00;99.90
9847;DHT22;68671;50.084;8.794;2023-04-09T07:11:31;17.30;99.90
9847;DHT22;68671;50.084;8.794;2023-04-09T07:13:58;17.50;99.90
9847;DHT22;68671;50.084;8.794;2023-04-09T07:16:25;17.80;99.90
9847;DHT22;68671;50.084;8.794;2023-04-09T07:18:52;18.10;99.90
9847;DHT22;68671;50.084;8.794;2023-04-09T07:21:19;18.50;99.90
9847;DHT22;68671;50.084;8.794;2023-04-09T07:23:46;18.80;99.90
9847;DHT22;68671;50.084;8.794;2023-04-09T07:26:13;19.10;99.90
9847;DHT22;68671;50.084;8.794;2023-04-09T07:28:42;19.30;99.90
9847;DHT22;68671;50.084;8.794;2023-04-09T07:31:08;19.60;99.90
9847;DHT22;68671;50.084;8.794;2023-04-09T07:33:36;19.80;99.20
9847;DHT22;68671;50.084;8.794;2023-04-09T07:36:03;20.10;98.50
9847;DHT22;68671;50.084;8.794;2023-04-09T07:38:31;20.20;97.70
9847;DHT22;68671;50.084;8.794;2023-04-09T07:40:59;20.40;96.90
9847;DHT22;68671;50.084;8.794;2023-04-09T07:43:26;20.50;96.00
9847;DHT22;68671;50.084;8.794;2023-04-09T07:45:54;20.70;95.40
9847;DHT22;68671;50.084;8.794;2023-04-09T07:48:21;20.80;94.90
9847;DHT22;68671;50.084;8.794;2023-04-09T07:50:48;21.00;94.50
9847;DHT22;68671;50.084;8.794;2023-04-09T07:53:16;21.30;94.40
9847;DHT22;68671;50.084;8.794;2023-04-09T07:55:43;21.40;93.20
9847;DHT22;68671;50.084;8.794;2023-04-09T07:58:11;21.60;92.80
9847;DHT22;68671;50.084;8.794;2023-04-09T08:00:38;21.60;92.10
9847;DHT22;68671;50.084;8.794;2023-04-09T08:03:10;21.60;91.70
9847;DHT22;68671;50.084;8.794;2023-04-09T08:05:38;21.50;91.30
9847;DHT22;68671;50.084;8.794;2023-04-09T08:08:08;21.50;90.90
9847;DHT22;68671;50.084;8.794;2023-04-09T08:10:35;21.40;90.20
9847;DHT22;68671;50.084;8.794;2023-04-09T08:13:02;21.10;88.80
9847;DHT22;68671;50.084;8.794;2023-04-09T08:15:30;20.80;86.30
9847;DHT22;68671;50.084;8.794;2023-04-09T08:18:02;20.30;85.00
9847;DHT22;68671;50.084;8.794;2023-04-09T08:20:33;19.70;84.30
9847;DHT22;68671;50.084;8.794;2023-04-09T08:23:00;19.10;84.80
9847;DHT22;68671;50.084;8.794;2023-04-09T08:25:28;18.50;85.50
9847;DHT22;68671;50.084;8.794;2023-04-09T08:27:58;18.00;85.80
9847;DHT22;68671;50.084;8.794;2023-04-09T08:30:26;17.50;86.70
9847;DHT22;68671;50.084;8.794;2023-04-09T08:32:53;17.30;88.40
9847;DHT22;68671;50.084;8.794;2023-04-09T08:35:20;17.00;89.70
9847;DHT22;68671;50.084;8.794;2023-04-09T08:37:49;16.80;90.00
9847;DHT22;68671;50.084;8.794;2023-04-09T08:40:17;16.60;90.40
9847;DHT22;68671;50.084;8.794;2023-04-09T08:42:55;16.30;90.50
9847;DHT22;68671;50.084;8.794;2023-04-09T08:45:25;16.20;90.70
9847;DHT22;68671;50.084;8.794;2023-04-09T08:47:54;16.00;91.00
9847;DHT22;68671;50.084;8.794;2023-04-09T08:50:24;15.90;91.30
9847;DHT22;68671;50.084;8.794;2023-04-09T08:52:53;15.80;91.40
9847;DHT22;68671;50.084;8.794;2023-04-09T08:55:21;15.70;91.60
9847;DHT22;68671;50.084;8.794;2023-04-09T08:57:49;15.70;91.20
9847;DHT22;68671;50.084;8.794;2023-04-09T09:00:17;15.70;91.10
9847;DHT22;68671;50.084;8.794;2023-04-09T09:03:00;15.60;91.20
9847;DHT22;68671;50.084;8.794;2023-04-09T09:05:35;15.50;90.60
9847;DHT22;68671;50.084;8.794;2023-04-09T09:08:06;15.50;90.60
9847;DHT22;68671;50.084;8.794;2023-04-09T09:10:40;15.40;90.20
9847;DHT22;68671;50.084;8.794;2023-04-09T09:13:15;15.50;90.00
9847;DHT22;68671;50.084;8.794;2023-04-09T09:15:43;15.50;89.60
9847;DHT22;68671;50.084;8.794;2023-04-09T09:18:12;15.50;89.00
9847;DHT22;68671;50.084;8.794;2023-04-09T09:20:39;15.50;88.90
9847;DHT22;68671;50.084;8.794;2023-04-09T09:23:08;15.40;88.50
9847;DHT22;68671;50.084;8.794;2023-04-09T09:25:38;15.40;88.90
9847;DHT22;68671;50.084;8.794;2023-04-09T09:28:09;15.50;88.80
9847;DHT22;68671;50.084;8.794;2023-04-09T09:30:37;15.50;88.40
9847;DHT22;68671;50.084;8.794;2023-04-09T09:33:05;15.50;88.10
9847;DHT22;68671;50.084;8.794;2023-04-09T09:35:50;15.60;88.10
9847;DHT22;68671;50.084;8.794;2023-04-09T09:38:20;15.70;87.90
9847;DHT22;68671;50.084;8.794;2023-04-09T09:40:48;15.80;87.60
9847;DHT22;68671;50.084;8.794;2023-04-09T09:43:15;15.80;87.60
9847;DHT22;68671;50.084;8.794;2023-04-09T09:45:43;16.00;87.50
9847;DHT22;68671;50.084;8.794;2023-04-09T09:48:12;16.10;87.30
9847;DHT22;68671;50.084;8.794;2023-04-09T09:50:41;16.20;86.20
9847;DHT22;68671;50.084;8.794;2023-04-09T09:53:15;16.20;85.00
9847;DHT22;68671;50.084;8.794;2023-04-09T09:55:51;16.10;84.40
9847;DHT22;68671;50.084;8.794;2023-04-09T09:58:23;16.00;84.10
9847;DHT22;68671;50.084;8.794;2023-04-09T10:00:50;15.90;83.70
9847;DHT22;68671;50.084;8.794;2023-04-09T10:03:20;15.70;83.40
9847;DHT22;68671;50.084;8.794;2023-04-09T10:05:55;15.70;84.00
9847;DHT22;68671;50.084;8.794;2023-04-09T10:08:26;15.60;84.40
9847;DHT22;68671;50.084;8.794;2023-04-09T10:10:56;15.60;84.10
9847;DHT22;68671;50.084;8.794;2023-04-09T10:13:27;15.60;84.20
9847;DHT22;68671;50.084;8.794;2023-04-09T10:16:02;15.50;84.10
9847;DHT22;68671;50.084;8.794;2023-04-09T10:18:36;15.50;84.50
9847;DHT22;68671;50.084;8.794;2023-04-09T10:21:11;15.50;85.00
9847;DHT22;68671;50.084;8.794;2023-04-09T10:23:44;15.60;85.50
9847;DHT22;68671;50.084;8.794;2023-04-09T10:26:17;15.50;86.10
9847;DHT22;68671;50.084;8.794;2023-04-09T10:28:44;15.50;84.60
9847;DHT22;68671;50.084;8.794;2023-04-09T10:31:11;15.50;84.50
9847;DHT22;68671;50.084;8.794;2023-04-09T10:33:42;15.50;84.30
9847;DHT22;68671;50.084;8.794;2023-04-09T10:36:11;15.60;84.20
9847;DHT22;68671;50.084;8.794;2023-04-09T10:38:39;15.50;84.20
9847;DHT22;68671;50.084;8.794;2023-04-09T10:41:13;15.50;84.40
9847;DHT22;68671;50.084;8.794;2023-04-09T10:43:46;15.60;84.50
9847;DHT22;68671;50.084;8.794;2023-04-09T10:46:29;15.80;84.90
9847;DHT22;68671;50.084;8.794;2023-04-09T10:49:09;15.90;85.30
9847;DHT22;68671;50.084;8.794;2023-04-09T10:51:38;16.10;85.40
9847;DHT22;68671;50.084;8.794;2023-04-09T10:54:06;16.20;84.70
9847;DHT22;68671;50.084;8.794;2023-04-09T10:57:10;16.40;84.50
9847;DHT22;68671;50.084;8.794;2023-04-09T10:59:40;16.40;83.90
9847;DHT22;68671;50.084;8.794;2023-04-09T11:02:08;16.50;84.00
9847;DHT22;68671;50.084;8.794;2023-04-09T11:04:45;16.60;84.30
9847;DHT22;68671;50.084;8.794;2023-04-09T11:07:24;16.60;83.50
9847;DHT22;68671;50.084;8.794;2023-04-09T11:09:58;16.70;83.30
9847;DHT22;68671;50.084;8.794;2023-04-09T11:12:25;16.70;82.90
9847;DHT22;68671;50.084;8.794;2023-04-09T11:14:59;16.70;82.50
9847;DHT22;68671;50.084;8.794;2023-04-09T11:17:36;16.70;82.50
9847;DHT22;68671;50.084;8.794;2023-04-09T11:20:08;16.70;82.50
9847;DHT22;68671;50.084;8.794;2023-04-09T11:22:39;16.90;82.40
9847;DHT22;68671;50.084;8.794;2023-04-09T11:25:17;16.90;81.50
9847;DHT22;68671;50.084;8.794;2023-04-09T11:27:51;17.00;81.40
9847;DHT22;68671;50.084;8.794;2023-04-09T11:30:25;16.90;81.20
9847;DHT22;68671;50.084;8.794;2023-04-09T11:32:58;17.00;82.60
9847;DHT22;68671;50.084;8.794;2023-04-09T11:35:36;17.10;81.90
9847;DHT22;68671;50.084;8.794;2023-04-09T11:38:11;17.20;81.50
9847;DHT22;68671;50.084;8.794;2023-04-09T11:40:55;17.20;80.60
9847;DHT22;68671;50.084;8.794;2023-04-09T11:43:28;17.20;80.00
9847;DHT22;68671;50.084;8.794;2023-04-09T11:46:09;17.10;79.50
9847;DHT22;68671;50.084;8.794;2023-04-09T11:49:01;17.00;79.30
9847;DHT22;68671;50.084;8.794;2023-04-09T11:51:32;16.90;79.40
9847;DHT22;68671;50.084;8.794;2023-04-09T11:54:13;16.80;79.40
9847;DHT22;68671;50.084;8.794;2023-04-09T11:56:45;16.80;79.20
9847;DHT22;68671;50.084;8.794;2023-04-09T11:59:22;16.70;79.40
9847;DHT22;68671;50.084;8.794;2023-04-09T12:01:53;16.70;80.10
9847;DHT22;68671;50.084;8.794;2023-04-09T12:04:33;16.70;81.00
9847;DHT22;68671;50.084;8.794;2023-04-09T12:07:07;16.70;81.70
9847;DHT22;68671;50.084;8.794;2023-04-09T12:09:50;16.80;82.60
9847;DHT22;68671;50.084;8.794;2023-04-09T12:12:30;17.10;83.20
9847;DHT22;68671;50.084;8.794;2023-04-09T12:15:10;17.30;82.70
9847;DHT22;68671;50.084;8.794;2023-04-09T12:17:46;17.30;81.40
9847;DHT22;68671;50.084;8.794;2023-04-09T12:20:34;17.20;80.40
9847;DHT22;68671;50.084;8.794;2023-04-09T12:23:02;17.20;80.40
9847;DHT22;68671;50.084;8.794;2023-04-09T12:25:41;17.10;80.60
9847;DHT22;68671;50.084;8.794;2023-04-09T12:28:16;17.10;80.00
9847;DHT22;68671;50.084;8.794;2023-04-09T12:30:47;16.90;79.50
9847;DHT22;68671;50.084;8.794;2023-04-09T12:33:26;16.80;79.40
9847;DHT22;68671;50.084;8.794;2023-04-09T12:36:17;16.80;79.80
9847;DHT22;68671;50.084;8.794;2023-04-09T12:38:44;16.70;79.90
9847;DHT22;68671;50.084;8.794;2023-04-09T12:41:11;16.70;80.00
9847;DHT22;68671;50.084;8.794;2023-04-09T12:43:39;16.60;79.90
9847;DHT22;68671;50.084;8.794;2023-04-09T12:46:07;16.60;80.00
9847;DHT22;68671;50.084;8.794;2023-04-09T12:48:36;16.50;79.70
9847;DHT22;68671;50.084;8.794;2023-04-09T12:51:03;16.50;79.90
9847;DHT22;68671;50.084;8.794;2023-04-09T12:53:31;16.50;80.00
9847;DHT22;68671;50.084;8.794;2023-04-09T12:55:58;16.40;79.80
9847;DHT22;68671;50.084;8.794;2023-04-09T12:58:26;16.40;79.60
9847;DHT22;68671;50.084;8.794;2023-04-09T13:00:53;16.30;79.50
9847;DHT22;68671;50.084;8.794;2023-04-09T13:03:21;16.30;80.00
9847;DHT22;68671;50.084;8.794;2023-04-09T13:05:50;16.40;80.80
9847;DHT22;68671;50.084;8.794;2023-04-09T13:08:17;16.40;80.90
9847;DHT22;68671;50.084;8.794;2023-04-09T13:10:44;16.40;81.10
9847;DHT22;68671;50.084;8.794;2023-04-09T13:13:11;16.60;80.80
9847;DHT22;68671;50.084;8.794;2023-04-09T13:15:39;16.50;80.60
9847;DHT22;68671;50.084;8.794;2023-04-09T13:18:07;16.70;80.50
9847;DHT22;68671;50.084;8.794;2023-04-09T13:20:34;16.80;80.30
9847;DHT22;68671;50.084;8.794;2023-04-09T13:23:03;16.80;79.80
9847;DHT22;68671;50.084;8.794;2023-04-09T13:25:30;16.80;79.20
9847;DHT22;68671;50.084;8.794;2023-04-09T13:27:57;16.70;78.70
9847;DHT22;68671;50.084;8.794;2023-04-09T13:30:24;16.60;78.60
9847;DHT22;68671;50.084;8.794;2023-04-09T13:32:51;16.50;78.80
9847;DHT22;68671;50.084;8.794;2023-04-09T13:35:18;16.50;78.80
9847;DHT22;68671;50.084;8.794;2023-04-09T13:37:48;16.40;78.90
9847;DHT22;68671;50.084;8.794;2023-04-09T13:40:17;16.30;78.80
9847;DHT22;68671;50.084;8.794;2023-04-09T13:42:50;16.30;79.10
9847;DHT22;68671;50.084;8.794;2023-04-09T13:45:17;16.40;79.50
9847;DHT22;68671;50.084;8.794;2023-04-09T13:47:47;16.50;79.80
9847;DHT22;68671;50.084;8.794;2023-04-09T13:50:18;16.60;80.00
9847;DHT22;68671;50.084;8.794;2023-04-09T13:52:47;16.80;79.80
9847;DHT22;68671;50.084;8.794;2023-04-09T13:55:16;17.00;79.80
9847;DHT22;68671;50.084;8.794;2023-04-09T13:57:43;17.10;79.80
9847;DHT22;68671;50.084;8.794;2023-04-09T14:00:11;17.20;79.40
9847;DHT22;68671;50.084;8.794;2023-04-09T14:02:38;17.30;79.10
9847;DHT22;68671;50.084;8.794;2023-04-09T14:05:06;17.30;78.80
9847;DHT22;68671;50.084;8.794;2023-04-09T14:07:34;17.30;78.40
9847;DHT22;68671;50.084;8.794;2023-04-09T14:10:01;17.20;78.20
9847;DHT22;68671;50.084;8.794;2023-04-09T14:12:30;17.20;78.30
9847;DHT22;68671;50.084;8.794;2023-04-09T14:14:57;17.20;78.50
9847;DHT22;68671;50.084;8.794;2023-04-09T14:17:25;17.20;78.30
9847;DHT22;68671;50.084;8.794;2023-04-09T14:19:54;17.10;78.50
9847;DHT22;68671;50.084;8.794;2023-04-09T14:22:22;17.10;80.40
9847;DHT22;68671;50.084;8.794;2023-04-09T14:24:49;17.10;80.00
9847;DHT22;68671;50.084;8.794;2023-04-09T14:27:16;17.10;79.40
9847;DHT22;68671;50.084;8.794;2023-04-09T14:29:45;17.20;79.40
9847;DHT22;68671;50.084;8.794;2023-04-09T14:32:12;17.00;79.60
9847;DHT22;68671;50.084;8.794;2023-04-09T14:34:39;17.10;79.70
9847;DHT22;68671;50.084;8.794;2023-04-09T14:37:07;17.00;78.80
9847;DHT22;68671;50.084;8.794;2023-04-09T14:39:35;17.00;79.60
9847;DHT22;68671;50.084;8.794;2023-04-09T14:42:02;17.00;79.20
9847;DHT22;68671;50.084;8.794;2023-04-09T14:44:30;16.90;79.40
9847;DHT22;68671;50.084;8.794;2023-04-09T14:47:01;16.90;79.40
9847;DHT22;68671;50.084;8.794;2023-04-09T14:49:37;16.80;79.70
9847;DHT22;68671;50.084;8.794;2023-04-09T14:52:08;16.80;80.10
9847;DHT22;68671;50.084;8.794;2023-04-09T14:54:47;16.80;81.30
9847;DHT22;68671;50.084;8.794;2023-04-09T14:57:24;16.80;80.30
9847;DHT22;68671;50.084;8.794;2023-04-09T14:59:56;16.80;80.30
9847;DHT22;68671;50.084;8.794;2023-04-09T15:02:43;16.80;79.70
9847;DHT22;68671;50.084;8.794;2023-04-09T15:05:28;16.90;78.70
9847;DHT22;68671;50.084;8.794;2023-04-09T15:07:56;16.90;77.90
9847;DHT22;68671;50.084;8.794;2023-04-09T15:10:23;16.90;78.80
9847;DHT22;68671;50.084;8.794;2023-04-09T15:12:52;17.00;78.70
9847;DHT22;68671;50.084;8.794;2023-04-09T15:15:19;16.90;78.60
9847;DHT22;68671;50.084;8.794;2023-04-09T15:17:48;16.80;78.40
9847;DHT22;68671;50.084;8.794;2023-04-09T15:20:15;16.80;78.50
9847;DHT22;68671;50.084;8.794;2023-04-09T15:22:43;16.70;79.80
9847;DHT22;68671;50.084;8.794;2023-04-09T15:25:10;16.80;80.10
9847;DHT22;68671;50.084;8.794;2023-04-09T15:27:45;16.70;79.50
9847;DHT22;68671;50.084;8.794;2023-04-09T15:30:20;16.60;78.90
9847;DHT22;68671;50.084;8.794;2023-04-09T15:32:54;16.70;78.50
9847;DHT22;68671;50.084;8.794;2023-04-09T15:35:24;16.60;78.50
9847;DHT22;68671;50.084;8.794;2023-04-09T15:37:54;16.70;78.60
9847;DHT22;68671;50.084;8.794;2023-04-09T15:40:22;16.50;78.70
9847;DHT22;68671;50.084;8.794;2023-04-09T15:42:49;16.60;78.50
9847;DHT22;68671;50.084;8.794;2023-04-09T15:45:16;16.60;77.90
9847;DHT22;68671;50.084;8.794;2023-04-09T15:47:43;16.60;78.00
9847;DHT22;68671;50.084;8.794;2023-04-09T15:50:13;16.50;78.60
9847;DHT22;68671;50.084;8.794;2023-04-09T15:52:40;16.60;78.30
9847;DHT22;68671;50.084;8.794;2023-04-09T15:55:07;16.60;78.00
9847;DHT22;68671;50.084;8.794;2023-04-09T15:57:40;16.70;77.90
9847;DHT22;68671;50.084;8.794;2023-04-09T16:00:21;16.70;78.30
9847;DHT22;68671;50.084;8.794;2023-04-09T16:02:56;16.70;78.60
9847;DHT22;68671;50.084;8.794;2023-04-09T16:05:48;16.60;78.60